sensor_id;sensor_type;location;lat;lon;timestamp;P1;durP1;ratioP1;P2;durP2;ratioP2
1701;SDS011;848;48.354;10.064;2024-03-22T00:01:48;18.85;;;13.05;;
1701;SDS011;848;48.354;10.064;2024-03-22T00:04:15;18.75;;;12.82;;
1701;SDS011;848;48.354;10.064;2024-03-22T00:06:42;20.15;;;13.48;;
1701;SDS011;848;48.354;10.064;2024-03-22T00:09:09;22.90;;;14.77;;
1701;SDS011;848;48.354;10.064;2024-03-22T00:11:36;20.58;;;12.80;;
1701;SDS011;848;48.354;10.064;2024-03-22T00:14:02;28.15;;;15.02;;
1701;SDS011;848;48.354;10.064;2024-03-22T00:16:29;20.80;;;12.18;;
1701;SDS011;848;48.354;10.064;2024-03-22T00:18:56;24.10;;;12.57;;
1701;SDS011;848;48.354;10.064;2024-03-22T00:21:23;19.88;;;12.50;;
1701;SDS011;848;48.354;10.064;2024-03-22T00:23:49;20.77;;;11.60;;
1701;SDS011;848;48.354;10.064;2024-03-22T00:26:16;18.83;;;12.32;;
1701;SDS011;848;48.354;10.064;2024-03-22T00:28:42;29.60;;;13.93;;
1701;SDS011;848;48.354;10.064;2024-03-22T00:31:09;19.65;;;11.60;;
1701;SDS011;848;48.354;10.064;2024-03-22T00:33:35;16.43;;;11.50;;
1701;SDS011;848;48.354;10.064;2024-03-22T00:36:03;16.75;;;10.75;;
1701;SDS011;848;48.354;10.064;2024-03-22T00:38:30;20.73;;;13.05;;
1701;SDS011;848;48.354;10.064;2024-03-22T00:40:56;27.15;;;13.63;;
1701;SDS011;848;48.354;10.064;2024-03-22T00:43:23;23.73;;;13.63;;
1701;SDS011;848;48.354;10.064;2024-03-22T00:45:49;17.65;;;12.45;;
1701;SDS011;848;48.354;10.064;2024-03-22T00:48:15;25.00;;;12.70;;
1701;SDS011;848;48.354;10.064;2024-03-22T00:50:43;24.27;;;13.40;;
1701;SDS011;848;48.354;10.064;2024-03-22T00:53:10;20.92;;;14.02;;
1701;SDS011;848;48.354;10.064;2024-03-22T00:55:37;20.13;;;13.20;;
1701;SDS011;848;48.354;10.064;2024-03-22T00:58:03;19.07;;;12.40;;
1701;SDS011;848;48.354;10.064;2024-03-22T01:00:30;22.27;;;15.00;;
1701;SDS011;848;48.354;10.064;2024-03-22T01:02:56;23.58;;;13.77;;
1701;SDS011;848;48.354;10.064;2024-03-22T01:05:23;22.35;;;14.00;;
1701;SDS011;848;48.354;10.064;2024-03-22T01:07:51;19.40;;;13.15;;
1701;SDS011;848;48.354;10.064;2024-03-22T01:10:19;21.35;;;11.60;;
1701;SDS011;848;48.354;10.064;2024-03-22T01:12:45;19.58;;;12.57;;
1701;SDS011;848;48.354;10.064;2024-03-22T01:15:12;17.30;;;11.05;;
1701;SDS011;848;48.354;10.064;2024-03-22T01:17:37;23.73;;;14.27;;
1701;SDS011;848;48.354;10.064;2024-03-22T01:20:05;20.30;;;12.57;;
1701;SDS011;848;48.354;10.064;2024-03-22T01:22:31;15.30;;;9.40;;
1701;SDS011;848;48.354;10.064;2024-03-22T01:24:58;12.85;;;8.02;;
1701;SDS011;848;48.354;10.064;2024-03-22T01:27:25;19.83;;;10.70;;
1701;SDS011;848;48.354;10.064;2024-03-22T01:29:52;15.20;;;10.75;;
1701;SDS011;848;48.354;10.064;2024-03-22T01:32:18;13.57;;;9.00;;
1701;SDS011;848;48.354;10.064;2024-03-22T01:34:45;18.35;;;10.15;;
1701;SDS011;848;48.354;10.064;2024-03-22T01:37:10;16.40;;;9.90;;
1701;SDS011;848;48.354;10.064;2024-03-22T01:39:37;14.07;;;9.00;;
1701;SDS011;848;48.354;10.064;2024-03-22T01:42:03;16.60;;;9.87;;
1701;SDS011;848;48.354;10.064;2024-03-22T01:44:32;14.43;;;9.23;;
1701;SDS011;848;48.354;10.064;2024-03-22T01:46:58;14.90;;;9.10;;
1701;SDS011;848;48.354;10.064;2024-03-22T01:49:25;19.27;;;9.30;;
1701;SDS011;848;48.354;10.064;2024-03-22T01:51:52;18.63;;;11.05;;
1701;SDS011;848;48.354;10.064;2024-03-22T01:54:19;21.40;;;10.85;;
1701;SDS011;848;48.354;10.064;2024-03-22T01:56:46;14.52;;;9.05;;
1701;SDS011;848;48.354;10.064;2024-03-22T01:59:13;14.30;;;9.27;;
1701;SDS011;848;48.354;10.064;2024-03-22T02:01:40;16.30;;;9.30;;
1701;SDS011;848;48.354;10.064;2024-03-22T02:04:08;20.95;;;11.15;;
1701;SDS011;848;48.354;10.064;2024-03-22T02:06:34;18.48;;;10.00;;
1701;SDS011;848;48.354;10.064;2024-03-22T02:09:01;17.25;;;10.88;;
1701;SDS011;848;48.354;10.064;2024-03-22T02:11:29;19.05;;;11.15;;
1701;SDS011;848;48.354;10.064;2024-03-22T02:13:56;18.75;;;8.98;;
1701;SDS011;848;48.354;10.064;2024-03-22T02:16:22;19.03;;;10.50;;
1701;SDS011;848;48.354;10.064;2024-03-22T02:18:51;22.83;;;10.63;;
1701;SDS011;848;48.354;10.064;2024-03-22T02:21:17;16.83;;;9.88;;
1701;SDS011;848;48.354;10.064;2024-03-22T02:23:45;13.90;;;9.27;;
1701;SDS011;848;48.354;10.064;2024-03-22T02:26:11;18.55;;;10.63;;
1701;SDS011;848;48.354;10.064;2024-03-22T02:28:37;21.85;;;12.88;;
1701;SDS011;848;48.354;10.064;2024-03-22T02:31:04;18.65;;;10.35;;
1701;SDS011;848;48.354;10.064;2024-03-22T02:33:31;15.95;;;9.52;;
1701;SDS011;848;48.354;10.064;2024-03-22T02:35:56;16.73;;;10.03;;
1701;SDS011;848;48.354;10.064;2024-03-22T02:38:23;17.48;;;10.60;;
1701;SDS011;848;48.354;10.064;2024-03-22T02:40:51;19.60;;;11.67;;
1701;SDS011;848;48.354;10.064;2024-03-22T02:43:19;21.55;;;10.68;;
1701;SDS011;848;48.354;10.064;2024-03-22T02:45:46;16.85;;;11.07;;
1701;SDS011;848;48.354;10.064;2024-03-22T02:48:13;16.55;;;11.18;;
1701;SDS011;848;48.354;10.064;2024-03-22T02:50:39;19.60;;;11.33;;
1701;SDS011;848;48.354;10.064;2024-03-22T02:53:06;15.85;;;10.70;;
1701;SDS011;848;48.354;10.064;2024-03-22T02:55:35;13.73;;;9.68;;
1701;SDS011;848;48.354;10.064;2024-03-22T02:58:05;18.48;;;11.13;;
1701;SDS011;848;48.354;10.064;2024-03-22T03:00:31;24.75;;;14.55;;
1701;SDS011;848;48.354;10.064;2024-03-22T03:02:58;19.52;;;10.40;;
1701;SDS011;848;48.354;10.064;2024-03-22T03:05:24;19.85;;;11.93;;
1701;SDS011;848;48.354;10.064;2024-03-22T03:07:51;19.75;;;13.38;;
1701;SDS011;848;48.354;10.064;2024-03-22T03:10:17;20.47;;;11.07;;
1701;SDS011;848;48.354;10.064;2024-03-22T03:12:44;17.77;;;11.70;;
1701;SDS011;848;48.354;10.064;2024-03-22T03:15:11;21.00;;;11.17;;
1701;SDS011;848;48.354;10.064;2024-03-22T03:17:38;22.02;;;12.05;;
1701;SDS011;848;48.354;10.064;2024-03-22T03:20:04;22.07;;;12.07;;
1701;SDS011;848;48.354;10.064;2024-03-22T03:22:35;29.38;;;12.15;;
1701;SDS011;848;48.354;10.064;2024-03-22T03:25:03;18.00;;;10.73;;
1701;SDS011;848;48.354;10.064;2024-03-22T03:27:30;17.58;;;10.65;;
1701;SDS011;848;48.354;10.064;2024-03-22T03:29:56;17.05;;;9.93;;
1701;SDS011;848;48.354;10.064;2024-03-22T03:32:24;17.42;;;10.07;;
1701;SDS011;848;48.354;10.064;2024-03-22T03:34:50;26.05;;;11.52;;
1701;SDS011;848;48.354;10.064;2024-03-22T03:37:17;21.20;;;12.52;;
1701;SDS011;848;48.354;10.064;2024-03-22T03:39:43;17.07;;;12.40;;
1701;SDS011;848;48.354;10.064;2024-03-22T03:42:10;14.20;;;9.13;;
1701;SDS011;848;48.354;10.064;2024-03-22T03:44:36;14.83;;;9.80;;
1701;SDS011;848;48.354;10.064;2024-03-22T03:47:03;15.13;;;9.65;;
1701;SDS011;848;48.354;10.064;2024-03-22T03:49:30;16.73;;;9.15;;
1701;SDS011;848;48.354;10.064;2024-03-22T03:51:57;21.45;;;9.80;;
1701;SDS011;848;48.354;10.064;2024-03-22T03:54:23;14.77;;;8.53;;
1701;SDS011;848;48.354;10.064;2024-03-22T03:56:50;18.60;;;9.50;;
1701;SDS011;848;48.354;10.064;2024-03-22T03:59:16;15.17;;;9.83;;
1701;SDS011;848;48.354;10.064;2024-03-22T04:01:43;17.75;;;11.02;;
1701;SDS011;848;48.354;10.064;2024-03-22T04:04:08;12.70;;;8.73;;
1701;SDS011;848;48.354;10.064;2024-03-22T04:06:37;17.80;;;9.65;;
1701;SDS011;848;48.354;10.064;2024-03-22T04:09:03;16.73;;;9.25;;
1701;SDS011;848;48.354;10.064;2024-03-22T04:11:30;15.85;;;9.40;;
1701;SDS011;848;48.354;10.064;2024-03-22T04:13:56;15.85;;;9.60;;
1701;SDS011;848;48.354;10.064;2024-03-22T04:16:23;16.80;;;8.68;;
1701;SDS011;848;48.354;10.064;2024-03-22T04:18:49;12.93;;;8.90;;
1701;SDS011;848;48.354;10.064;2024-03-22T04:21:17;17.17;;;9.40;;
1701;SDS011;848;48.354;10.064;2024-03-22T04:23:44;16.43;;;8.90;;
1701;SDS011;848;48.354;10.064;2024-03-22T04:26:11;13.13;;;9.32;;
1701;SDS011;848;48.354;10.064;2024-03-22T04:28:37;16.50;;;9.63;;
1701;SDS011;848;48.354;10.064;2024-03-22T04:31:05;18.08;;;8.90;;
1701;SDS011;848;48.354;10.064;2024-03-22T04:33:33;14.10;;;8.05;;
1701;SDS011;848;48.354;10.064;2024-03-22T04:36:00;14.85;;;8.68;;
1701;SDS011;848;48.354;10.064;2024-03-22T04:38:28;12.20;;;8.30;;
1701;SDS011;848;48.354;10.064;2024-03-22T04:40:56;17.30;;;8.55;;
1701;SDS011;848;48.354;10.064;2024-03-22T04:43:23;13.23;;;8.15;;
1701;SDS011;848;48.354;10.064;2024-03-22T04:45:51;14.32;;;7.05;;
1701;SDS011;848;48.354;10.064;2024-03-22T04:48:17;18.77;;;10.38;;
1701;SDS011;848;48.354;10.064;2024-03-22T04:50:45;13.45;;;7.55;;
1701;SDS011;848;48.354;10.064;2024-03-22T04:53:13;13.10;;;9.35;;
1701;SDS011;848;48.354;10.064;2024-03-22T04:55:40;16.48;;;8.38;;
1701;SDS011;848;48.354;10.064;2024-03-22T04:58:12;12.40;;;7.47;;
1701;SDS011;848;48.354;10.064;2024-03-22T05:00:40;13.80;;;8.50;;
1701;SDS011;848;48.354;10.064;2024-03-22T05:03:05;12.57;;;9.40;;
1701;SDS011;848;48.354;10.064;2024-03-22T05:05:33;14.35;;;8.25;;
1701;SDS011;848;48.354;10.064;2024-03-22T05:07:59;15.70;;;9.35;;
1701;SDS011;848;48.354;10.064;2024-03-22T05:10:26;10.55;;;7.78;;
1701;SDS011;848;48.354;10.064;2024-03-22T05:12:52;13.43;;;9.00;;
1701;SDS011;848;48.354;10.064;2024-03-22T05:15:20;15.50;;;10.20;;
1701;SDS011;848;48.354;10.064;2024-03-22T05:17:46;14.20;;;8.77;;
1701;SDS011;848;48.354;10.064;2024-03-22T05:20:14;18.13;;;10.60;;
1701;SDS011;848;48.354;10.064;2024-03-22T05:22:41;17.42;;;10.50;;
1701;SDS011;848;48.354;10.064;2024-03-22T05:25:08;14.15;;;9.60;;
1701;SDS011;848;48.354;10.064;2024-03-22T05:27:35;14.27;;;9.75;;
1701;SDS011;848;48.354;10.064;2024-03-22T05:30:02;18.33;;;9.52;;
1701;SDS011;848;48.354;10.064;2024-03-22T05:32:30;17.00;;;10.55;;
1701;SDS011;848;48.354;10.064;2024-03-22T05:34:57;19.95;;;9.63;;
1701;SDS011;848;48.354;10.064;2024-03-22T05:37:23;14.37;;;8.67;;
1701;SDS011;848;48.354;10.064;2024-03-22T05:39:50;15.65;;;10.48;;
1701;SDS011;848;48.354;10.064;2024-03-22T05:42:16;23.50;;;9.13;;
1701;SDS011;848;48.354;10.064;2024-03-22T05:44:43;14.00;;;9.00;;
1701;SDS011;848;48.354;10.064;2024-03-22T05:47:09;15.10;;;9.35;;
1701;SDS011;848;48.354;10.064;2024-03-22T05:49:38;15.18;;;9.68;;
1701;SDS011;848;48.354;10.064;2024-03-22T05:52:04;16.27;;;10.30;;
1701;SDS011;848;48.354;10.064;2024-03-22T05:54:31;17.98;;;10.18;;
1701;SDS011;848;48.354;10.064;2024-03-22T05:56:57;15.97;;;8.50;;
1701;SDS011;848;48.354;10.064;2024-03-22T05:59:23;17.70;;;11.20;;
1701;SDS011;848;48.354;10.064;2024-03-22T06:01:49;13.40;;;9.80;;
1701;SDS011;848;48.354;10.064;2024-03-22T06:04:16;15.40;;;9.18;;
1701;SDS011;848;48.354;10.064;2024-03-22T06:06:43;15.97;;;9.57;;
1701;SDS011;848;48.354;10.064;2024-03-22T06:09:10;15.95;;;9.00;;
1701;SDS011;848;48.354;10.064;2024-03-22T06:11:38;19.05;;;8.93;;
1701;SDS011;848;48.354;10.064;2024-03-22T06:14:09;15.40;;;9.48;;
1701;SDS011;848;48.354;10.064;2024-03-22T06:16:35;12.80;;;9.20;;
1701;SDS011;848;48.354;10.064;2024-03-22T06:19:01;15.65;;;10.60;;
1701;SDS011;848;48.354;10.064;2024-03-22T06:21:28;15.57;;;10.07;;
1701;SDS011;848;48.354;10.064;2024-03-22T06:23:56;11.00;;;9.00;;
1701;SDS011;848;48.354;10.064;2024-03-22T06:26:22;21.23;;;10.48;;
1701;SDS011;848;48.354;10.064;2024-03-22T06:28:49;20.30;;;10.70;;
1701;SDS011;848;48.354;10.064;2024-03-22T06:31:15;13.57;;;9.70;;
1701;SDS011;848;48.354;10.064;2024-03-22T06:33:42;15.93;;;11.48;;
1701;SDS011;848;48.354;10.064;2024-03-22T06:36:08;17.20;;;9.60;;
1701;SDS011;848;48.354;10.064;2024-03-22T06:38:35;15.00;;;11.40;;
1701;SDS011;848;48.354;10.064;2024-03-22T06:41:04;16.00;;;11.00;;
1701;SDS011;848;48.354;10.064;2024-03-22T06:43:30;16.67;;;10.05;;
1701;SDS011;848;48.354;10.064;2024-03-22T06:46:01;18.33;;;9.73;;
1701;SDS011;848;48.354;10.064;2024-03-22T06:48:27;17.90;;;10.57;;
1701;SDS011;848;48.354;10.064;2024-03-22T06:50:53;13.65;;;9.40;;
1701;SDS011;848;48.354;10.064;2024-03-22T06:53:19;16.67;;;11.07;;
1701;SDS011;848;48.354;10.064;2024-03-22T06:55:49;15.55;;;11.10;;
1701;SDS011;848;48.354;10.064;2024-03-22T06:58:16;14.52;;;11.00;;
1701;SDS011;848;48.354;10.064;2024-03-22T07:00:43;13.95;;;10.00;;
1701;SDS011;848;48.354;10.064;2024-03-22T07:03:08;16.77;;;10.93;;
1701;SDS011;848;48.354;10.064;2024-03-22T07:05:35;15.52;;;11.13;;
1701;SDS011;848;48.354;10.064;2024-03-22T07:08:01;16.77;;;9.70;;
1701;SDS011;848;48.354;10.064;2024-03-22T07:10:29;14.52;;;9.55;;
1701;SDS011;848;48.354;10.064;2024-03-22T07:12:56;17.35;;;10.07;;
1701;SDS011;848;48.354;10.064;2024-03-22T07:15:24;16.13;;;10.30;;
1701;SDS011;848;48.354;10.064;2024-03-22T07:17:50;13.77;;;9.35;;
1701;SDS011;848;48.354;10.064;2024-03-22T07:20:17;12.20;;;8.45;;
1701;SDS011;848;48.354;10.064;2024-03-22T07:22:43;16.80;;;10.80;;
1701;SDS011;848;48.354;10.064;2024-03-22T07:25:11;14.65;;;8.88;;
1701;SDS011;848;48.354;10.064;2024-03-22T07:27:37;13.07;;;7.63;;
1701;SDS011;848;48.354;10.064;2024-03-22T07:30:04;14.55;;;10.15;;
1701;SDS011;848;48.354;10.064;2024-03-22T07:32:32;14.48;;;9.23;;
1701;SDS011;848;48.354;10.064;2024-03-22T07:34:59;11.63;;;8.80;;
1701;SDS011;848;48.354;10.064;2024-03-22T07:37:25;13.10;;;8.80;;
1701;SDS011;848;48.354;10.064;2024-03-22T07:39:52;13.07;;;8.40;;
1701;SDS011;848;48.354;10.064;2024-03-22T07:42:18;16.90;;;9.37;;
1701;SDS011;848;48.354;10.064;2024-03-22T07:44:46;19.23;;;9.93;;
1701;SDS011;848;48.354;10.064;2024-03-22T07:47:12;10.77;;;8.40;;
1701;SDS011;848;48.354;10.064;2024-03-22T07:49:40;10.82;;;8.80;;
1701;SDS011;848;48.354;10.064;2024-03-22T07:52:06;14.70;;;9.18;;
1701;SDS011;848;48.354;10.064;2024-03-22T07:54:34;12.00;;;8.35;;
1701;SDS011;848;48.354;10.064;2024-03-22T07:57:00;11.30;;;8.23;;
1701;SDS011;848;48.354;10.064;2024-03-22T07:59:27;10.73;;;8.52;;
1701;SDS011;848;48.354;10.064;2024-03-22T08:01:53;11.47;;;9.60;;
1701;SDS011;848;48.354;10.064;2024-03-22T08:04:20;12.80;;;8.90;;
1701;SDS011;848;48.354;10.064;2024-03-22T08:06:47;15.33;;;8.53;;
1701;SDS011;848;48.354;10.064;2024-03-22T08:09:16;11.43;;;8.70;;
1701;SDS011;848;48.354;10.064;2024-03-22T08:11:43;13.13;;;8.15;;
1701;SDS011;848;48.354;10.064;2024-03-22T08:14:10;14.13;;;9.02;;
1701;SDS011;848;48.354;10.064;2024-03-22T08:16:36;16.27;;;9.00;;
1701;SDS011;848;48.354;10.064;2024-03-22T08:19:03;13.55;;;9.63;;
1701;SDS011;848;48.354;10.064;2024-03-22T08:21:28;13.53;;;9.43;;
1701;SDS011;848;48.354;10.064;2024-03-22T08:23:57;11.88;;;8.80;;
1701;SDS011;848;48.354;10.064;2024-03-22T08:26:23;12.32;;;9.32;;
1701;SDS011;848;48.354;10.064;2024-03-22T08:28:49;13.60;;;9.63;;
1701;SDS011;848;48.354;10.064;2024-03-22T08:31:15;13.00;;;9.50;;
1701;SDS011;848;48.354;10.064;2024-03-22T08:33:43;14.55;;;10.13;;
1701;SDS011;848;48.354;10.064;2024-03-22T08:36:11;13.10;;;8.87;;
1701;SDS011;848;48.354;10.064;2024-03-22T08:38:38;14.75;;;9.45;;
1701;SDS011;848;48.354;10.064;2024-03-22T08:41:05;13.87;;;9.60;;
1701;SDS011;848;48.354;10.064;2024-03-22T08:43:32;18.05;;;11.15;;
1701;SDS011;848;48.354;10.064;2024-03-22T08:45:58;12.03;;;8.97;;
1701;SDS011;848;48.354;10.064;2024-03-22T08:48:25;15.25;;;9.93;;
1701;SDS011;848;48.354;10.064;2024-03-22T08:50:51;18.35;;;10.38;;
1701;SDS011;848;48.354;10.064;2024-03-22T08:53:18;19.58;;;11.10;;
1701;SDS011;848;48.354;10.064;2024-03-22T08:55:47;11.90;;;8.20;;
1701;SDS011;848;48.354;10.064;2024-03-22T08:58:15;17.02;;;10.45;;
1701;SDS011;848;48.354;10.064;2024-03-22T09:00:43;13.38;;;9.30;;
1701;SDS011;848;48.354;10.064;2024-03-22T09:03:10;13.77;;;9.85;;
1701;SDS011;848;48.354;10.064;2024-03-22T09:05:36;11.77;;;9.83;;
1701;SDS011;848;48.354;10.064;2024-03-22T09:08:03;13.60;;;9.52;;
1701;SDS011;848;48.354;10.064;2024-03-22T09:10:29;15.52;;;10.15;;
1701;SDS011;848;48.354;10.064;2024-03-22T09:12:56;13.95;;;8.95;;
1701;SDS011;848;48.354;10.064;2024-03-22T09:15:24;13.07;;;10.00;;
1701;SDS011;848;48.354;10.064;2024-03-22T09:17:51;13.23;;;9.43;;
1701;SDS011;848;48.354;10.064;2024-03-22T09:20:17;15.27;;;9.80;;
1701;SDS011;848;48.354;10.064;2024-03-22T09:22:44;14.05;;;9.82;;
1701;SDS011;848;48.354;10.064;2024-03-22T09:25:10;14.77;;;11.03;;
1701;SDS011;848;48.354;10.064;2024-03-22T09:27:37;12.50;;;9.48;;
1701;SDS011;848;48.354;10.064;2024-03-22T09:30:03;17.50;;;9.30;;
1701;SDS011;848;48.354;10.064;2024-03-22T09:32:32;11.50;;;7.57;;
1701;SDS011;848;48.354;10.064;2024-03-22T09:34:58;12.90;;;8.30;;
1701;SDS011;848;48.354;10.064;2024-03-22T09:37:25;10.38;;;8.70;;
1701;SDS011;848;48.354;10.064;2024-03-22T09:39:51;13.70;;;8.50;;
1701;SDS011;848;48.354;10.064;2024-03-22T09:42:17;12.90;;;8.57;;
1701;SDS011;848;48.354;10.064;2024-03-22T09:44:46;15.32;;;9.10;;
1701;SDS011;848;48.354;10.064;2024-03-22T09:47:14;11.48;;;8.93;;
1701;SDS011;848;48.354;10.064;2024-03-22T09:49:43;10.50;;;7.38;;
1701;SDS011;848;48.354;10.064;2024-03-22T09:52:11;10.77;;;7.82;;
1701;SDS011;848;48.354;10.064;2024-03-22T09:54:40;11.70;;;7.20;;
1701;SDS011;848;48.354;10.064;2024-03-22T09:57:07;9.18;;;7.35;;
1701;SDS011;848;48.354;10.064;2024-03-22T09:59:37;8.88;;;6.70;;
1701;SDS011;848;48.354;10.064;2024-03-22T10:02:04;9.07;;;7.47;;
1701;SDS011;848;48.354;10.064;2024-03-22T10:04:32;14.82;;;8.70;;
1701;SDS011;848;48.354;10.064;2024-03-22T10:07:00;7.65;;;6.43;;
1701;SDS011;848;48.354;10.064;2024-03-22T10:09:28;8.15;;;5.50;;
1701;SDS011;848;48.354;10.064;2024-03-22T10:11:55;9.13;;;6.13;;
1701;SDS011;848;48.354;10.064;2024-03-22T10:14:22;12.57;;;6.90;;
1701;SDS011;848;48.354;10.064;2024-03-22T10:16:50;11.88;;;7.97;;
1701;SDS011;848;48.354;10.064;2024-03-22T10:19:19;8.13;;;6.22;;
1701;SDS011;848;48.354;10.064;2024-03-22T10:21:45;7.65;;;6.47;;
1701;SDS011;848;48.354;10.064;2024-03-22T10:24:14;12.32;;;7.38;;
1701;SDS011;848;48.354;10.064;2024-03-22T10:26:40;12.05;;;7.75;;
1701;SDS011;848;48.354;10.064;2024-03-22T10:29:07;10.48;;;6.53;;
1701;SDS011;848;48.354;10.064;2024-03-22T10:31:34;12.55;;;7.28;;
1701;SDS011;848;48.354;10.064;2024-03-22T10:34:02;11.55;;;7.40;;
1701;SDS011;848;48.354;10.064;2024-03-22T10:36:29;10.10;;;7.85;;
1701;SDS011;848;48.354;10.064;2024-03-22T10:38:57;7.78;;;6.60;;
1701;SDS011;848;48.354;10.064;2024-03-22T10:41:27;13.30;;;7.70;;
1701;SDS011;848;48.354;10.064;2024-03-22T10:43:54;11.05;;;7.20;;
1701;SDS011;848;48.354;10.064;2024-03-22T10:46:20;9.13;;;6.93;;
1701;SDS011;848;48.354;10.064;2024-03-22T10:48:47;8.90;;;7.07;;
1701;SDS011;848;48.354;10.064;2024-03-22T10:51:14;9.10;;;6.40;;
1701;SDS011;848;48.354;10.064;2024-03-22T10:53:42;13.70;;;7.43;;
1701;SDS011;848;48.354;10.064;2024-03-22T10:56:09;13.57;;;7.38;;
1701;SDS011;848;48.354;10.064;2024-03-22T10:58:40;9.35;;;6.80;;
1701;SDS011;848;48.354;10.064;2024-03-22T11:01:07;7.53;;;6.03;;
1701;SDS011;848;48.354;10.064;2024-03-22T11:03:48;7.10;;;5.20;;
1701;SDS011;848;48.354;10.064;2024-03-22T11:06:17;11.05;;;6.32;;
1701;SDS011;848;48.354;10.064;2024-03-22T11:08:49;8.25;;;6.35;;
1701;SDS011;848;48.354;10.064;2024-03-22T11:11:17;7.85;;;6.40;;
1701;SDS011;848;48.354;10.064;2024-03-22T11:13:47;12.15;;;6.68;;
1701;SDS011;848;48.354;10.064;2024-03-22T11:16:14;7.10;;;5.25;;
1701;SDS011;848;48.354;10.064;2024-03-22T11:18:42;8.50;;;5.80;;
1701;SDS011;848;48.354;10.064;2024-03-22T11:21:08;9.27;;;6.30;;
1701;SDS011;848;48.354;10.064;2024-03-22T11:23:35;6.68;;;5.95;;
1701;SDS011;848;48.354;10.064;2024-03-22T11:26:01;6.53;;;5.25;;
1701;SDS011;848;48.354;10.064;2024-03-22T11:28:29;10.20;;;6.63;;
1701;SDS011;848;48.354;10.064;2024-03-22T11:30:56;9.05;;;5.55;;
1701;SDS011;848;48.354;10.064;2024-03-22T11:33:23;9.20;;;6.40;;
1701;SDS011;848;48.354;10.064;2024-03-22T11:35:49;7.60;;;6.47;;
1701;SDS011;848;48.354;10.064;2024-03-22T11:38:16;9.25;;;5.75;;
1701;SDS011;848;48.354;10.064;2024-03-22T11:40:42;8.40;;;6.13;;
1701;SDS011;848;48.354;10.064;2024-03-22T11:43:10;10.20;;;5.32;;
1701;SDS011;848;48.354;10.064;2024-03-22T11:45:40;7.25;;;5.57;;
1701;SDS011;848;48.354;10.064;2024-03-22T11:48:09;6.97;;;5.35;;
1701;SDS011;848;48.354;10.064;2024-03-22T11:50:35;10.80;;;5.25;;
1701;SDS011;848;48.354;10.064;2024-03-22T11:53:04;8.85;;;6.03;;
1701;SDS011;848;48.354;10.064;2024-03-22T11:55:30;9.52;;;5.78;;
1701;SDS011;848;48.354;10.064;2024-03-22T11:57:57;6.50;;;5.25;;
1701;SDS011;848;48.354;10.064;2024-03-22T12:00:23;6.22;;;4.95;;
1701;SDS011;848;48.354;10.064;2024-03-22T12:02:51;4.90;;;4.40;;
1701;SDS011;848;48.354;10.064;2024-03-22T12:05:19;8.23;;;4.85;;
1701;SDS011;848;48.354;10.064;2024-03-22T12:07:47;8.10;;;5.22;;
1701;SDS011;848;48.354;10.064;2024-03-22T12:10:13;7.50;;;5.17;;
1701;SDS011;848;48.354;10.064;2024-03-22T12:12:40;5.30;;;4.15;;
1701;SDS011;848;48.354;10.064;2024-03-22T12:15:06;5.93;;;4.80;;
1701;SDS011;848;48.354;10.064;2024-03-22T12:17:33;7.10;;;5.03;;
1701;SDS011;848;48.354;10.064;2024-03-22T12:20:01;8.68;;;5.05;;
1701;SDS011;848;48.354;10.064;2024-03-22T12:22:30;5.05;;;4.10;;
1701;SDS011;848;48.354;10.064;2024-03-22T12:24:56;5.18;;;3.72;;
1701;SDS011;848;48.354;10.064;2024-03-22T12:27:24;7.28;;;4.72;;
1701;SDS011;848;48.354;10.064;2024-03-22T12:29:50;4.80;;;3.30;;
1701;SDS011;848;48.354;10.064;2024-03-22T12:32:17;4.70;;;4.10;;
1701;SDS011;848;48.354;10.064;2024-03-22T12:34:43;6.10;;;4.33;;
1701;SDS011;848;48.354;10.064;2024-03-22T12:37:10;4.30;;;3.40;;
1701;SDS011;848;48.354;10.064;2024-03-22T12:39:37;5.63;;;3.00;;
1701;SDS011;848;48.354;10.064;2024-03-22T12:42:04;6.05;;;3.40;;
1701;SDS011;848;48.354;10.064;2024-03-22T12:44:31;6.50;;;4.50;;
1701;SDS011;848;48.354;10.064;2024-03-22T12:46:57;5.25;;;4.00;;
1701;SDS011;848;48.354;10.064;2024-03-22T12:49:24;4.38;;;3.45;;
1701;SDS011;848;48.354;10.064;2024-03-22T12:51:51;2.90;;;2.40;;
1701;SDS011;848;48.354;10.064;2024-03-22T12:54:17;4.40;;;3.57;;
1701;SDS011;848;48.354;10.064;2024-03-22T12:56:46;5.55;;;3.90;;
1701;SDS011;848;48.354;10.064;2024-03-22T12:59:13;7.63;;;4.20;;
1701;SDS011;848;48.354;10.064;2024-03-22T13:01:40;5.43;;;3.65;;
1701;SDS011;848;48.354;10.064;2024-03-22T13:04:06;3.87;;;3.17;;
1701;SDS011;848;48.354;10.064;2024-03-22T13:06:33;3.03;;;2.70;;
1701;SDS011;848;48.354;10.064;2024-03-22T13:08:59;3.95;;;2.20;;
1701;SDS011;848;48.354;10.064;2024-03-22T13:11:26;4.03;;;2.08;;
1701;SDS011;848;48.354;10.064;2024-03-22T13:13:54;3.57;;;2.83;;
1701;SDS011;848;48.354;10.064;2024-03-22T13:16:22;2.65;;;2.38;;
1701;SDS011;848;48.354;10.064;2024-03-22T13:18:48;3.80;;;3.42;;
1701;SDS011;848;48.354;10.064;2024-03-22T13:21:15;4.32;;;2.60;;
1701;SDS011;848;48.354;10.064;2024-03-22T13:23:41;3.40;;;2.40;;
1701;SDS011;848;48.354;10.064;2024-03-22T13:26:07;2.80;;;2.50;;
1701;SDS011;848;48.354;10.064;2024-03-22T13:28:33;4.60;;;2.83;;
1701;SDS011;848;48.354;10.064;2024-03-22T13:31:03;3.28;;;2.60;;
1701;SDS011;848;48.354;10.064;2024-03-22T13:33:31;4.00;;;3.10;;
1701;SDS011;848;48.354;10.064;2024-03-22T13:35:59;3.63;;;3.10;;
1701;SDS011;848;48.354;10.064;2024-03-22T13:38:25;5.00;;;3.10;;
1701;SDS011;848;48.354;10.064;2024-03-22T13:40:53;3.92;;;3.53;;
1701;SDS011;848;48.354;10.064;2024-03-22T13:43:20;3.42;;;2.67;;
1701;SDS011;848;48.354;10.064;2024-03-22T13:45:47;3.05;;;2.75;;
1701;SDS011;848;48.354;10.064;2024-03-22T13:48:20;4.35;;;3.55;;
1701;SDS011;848;48.354;10.064;2024-03-22T13:50:49;5.47;;;3.42;;
1701;SDS011;848;48.354;10.064;2024-03-22T13:53:15;3.00;;;2.70;;
1701;SDS011;848;48.354;10.064;2024-03-22T13:55:42;5.38;;;2.70;;
1701;SDS011;848;48.354;10.064;2024-03-22T13:58:08;2.80;;;2.38;;
1701;SDS011;848;48.354;10.064;2024-03-22T14:00:35;2.88;;;2.40;;
1701;SDS011;848;48.354;10.064;2024-03-22T14:03:01;3.73;;;3.00;;
1701;SDS011;848;48.354;10.064;2024-03-22T14:05:30;3.20;;;2.83;;
1701;SDS011;848;48.354;10.064;2024-03-22T14:07:56;3.45;;;2.90;;
1701;SDS011;848;48.354;10.064;2024-03-22T14:10:23;4.55;;;3.00;;
1701;SDS011;848;48.354;10.064;2024-03-22T14:12:51;6.25;;;3.00;;
1701;SDS011;848;48.354;10.064;2024-03-22T14:15:18;3.45;;;2.75;;
1701;SDS011;848;48.354;10.064;2024-03-22T14:17:45;7.68;;;4.43;;
1701;SDS011;848;48.354;10.064;2024-03-22T14:20:12;7.18;;;3.38;;
1701;SDS011;848;48.354;10.064;2024-03-22T14:22:40;4.15;;;2.88;;
1701;SDS011;848;48.354;10.064;2024-03-22T14:25:07;6.32;;;3.00;;
1701;SDS011;848;48.354;10.064;2024-03-22T14:27:33;4.00;;;3.03;;
1701;SDS011;848;48.354;10.064;2024-03-22T14:30:01;2.72;;;2.47;;
1701;SDS011;848;48.354;10.064;2024-03-22T14:32:31;6.97;;;2.65;;
1701;SDS011;848;48.354;10.064;2024-03-22T14:34:57;3.25;;;2.38;;
1701;SDS011;848;48.354;10.064;2024-03-22T14:37:23;4.93;;;2.83;;
1701;SDS011;848;48.354;10.064;2024-03-22T14:39:52;5.10;;;3.05;;
1701;SDS011;848;48.354;10.064;2024-03-22T14:42:18;3.75;;;2.97;;
1701;SDS011;848;48.354;10.064;2024-03-22T14:44:45;2.80;;;2.47;;
1701;SDS011;848;48.354;10.064;2024-03-22T14:47:11;4.50;;;3.07;;
1701;SDS011;848;48.354;10.064;2024-03-22T14:49:38;3.78;;;2.70;;
1701;SDS011;848;48.354;10.064;2024-03-22T14:52:04;4.20;;;3.28;;
1701;SDS011;848;48.354;10.064;2024-03-22T14:54:32;5.82;;;2.80;;
1701;SDS011;848;48.354;10.064;2024-03-22T14:56:59;3.30;;;2.57;;
1701;SDS011;848;48.354;10.064;2024-03-22T14:59:27;2.65;;;2.45;;